LIRFOSDI

Guest
Details From LIRF - Roma Fiumicino Leonardo Da Vinci
To OSDI - Damascus Intl
Flight Number -
Tags Generated
Created
Modified
Stats Distance 1,255 nm / 2,324 km
Max Altitude 0 ft / 0 m
Waypoints 6
Social Downloads 0
Likes 0
Share VATSIM

Download

Looking for another format? Having issues loading an existing format? Contact us
Advertisement - Login to hide

Notes

Generated

Route

LIRF BRD14 AGH AKBUK MEZ OSDI

ID Type Via Altitude (ft/m) Position (lat/lon) Dist (leg/tot) Name
O LIRF APT - 0 / 0 41.79932 / 12.23212 - / 0 nm
BRD14 FIX - 0 / 0 40.61861 / 17.69643 256 / 256 nm
AGH VOR - 0 / 0 39.21622 / 22.79192 249 / 506 nm ANCHIALOS VOR-DME
AKBUK FIX - 0 / 0 37.41444 / 27.50778 247 / 753 nm
MEZ NDB - 0 / 0 33.48333 / 36.23333 487 / 1240 nm MEZZE NDB
O OSDI APT - 0 / 0 33.41489 / 36.50367 14 / 1254 nm

Altitude Profile

Advertisement - Login to hide

Weather


0- 5 10 15 20 25 30 35+ Temperature / °C

Clouds and Precipitation
Forecast for 2018-10-20 12:00 UTC. Updated an hour ago

Ground ~20,000 ft ~40,000 ft Winds

LIRF

Details ICAO LIRF (FCO)
Name Leonardo da Vinci-Fiumicino Airport
Region Italy
Timezone Europe/Rome (UTC+2.0)
Stats Elevation 14 ft / 4 m (AMSL)
Location 41.810800° 12.250900°
Runways 3
Magnetic Variation 3.084° E

METAR

LIRF 200950Z VRB02KT CAVOK 23/15 Q1021 NOSIG

Decode

TAF

TAF LIRF 200500Z 2006/2112 VRB05KT CAVOK BECMG 2011/2013 28010KT BECMG 2017/2019 VRB05KT

Decode

Departure Runways

ID Width Length Bearing (true/mag) Surface Threshold Overrun Markings Lighting
07 148 ft / 45 m 10,833 ft / 3,302 m 69.66° / 66.58° ASPHALT 1,352 ft / 412 m 0 ft / 0 m PREC-APP CENTERLINE EDGE THRESHOLD SALS REIL-OMNI
16L 197 ft / 60 m 12,804 ft / 3,903 m 162.69° / 159.61° ASPHALT 0 ft / 0 m 0 ft / 0 m PREC-APP CENTERLINE EDGE THRESHOLD ALSF-II REIL-OMNI
16R 197 ft / 60 m 12,811 ft / 3,905 m 162.66° / 159.58° ASPHALT 0 ft / 0 m 0 ft / 0 m PREC-APP CENTERLINE EDGE THRESHOLD ALSF-II REIL-OMNI
25 148 ft / 45 m 10,833 ft / 3,302 m 249.69° / 246.60° ASPHALT 0 ft / 0 m 0 ft / 0 m PREC-APP CENTERLINE EDGE THRESHOLD ALSF-I REIL-OMNI
34L 197 ft / 60 m 12,811 ft / 3,905 m 342.67° / 339.58° ASPHALT 0 ft / 0 m 0 ft / 0 m PREC-APP CENTERLINE EDGE THRESHOLD ALSF-I REIL-OMNI
34R 197 ft / 60 m 12,804 ft / 3,903 m 342.70° / 339.62° ASPHALT 0 ft / 0 m 0 ft / 0 m PREC-APP CENTERLINE EDGE THRESHOLD ALSF-II REIL-OMNI

OSDI

Details ICAO OSDI (DAM)
Name DAMASCUS INTL
Region Syria
Timezone Asia/Damascus (UTC+3.0)
Stats Elevation 2,020 ft / 616 m (AMSL)
Location 33.410600° 36.514300°
Runways 2
Magnetic Variation 4.941° E

METAR

OSDI 201000Z 02004KT 9999 SCT030 BKN200 27/09 Q1015

Decode

TAF

OSDI 200500Z 2006/2112 VRB03KT 8000 FEW030 TEMPO 2012/2018 22010KT= OSLK 200500Z 2006/2106 18008KT CAVOK PROB30 TEMPO 2103/2105 16012KT 6000 SHRA FEW025CB SCT030 SCT100

Decode

Destination Runways

ID Width Length Bearing (true/mag) Surface Threshold Overrun Markings Lighting
05L 148 ft / 45 m 11,808 ft / 3,599 m 48.36° / 43.42° ASPHALT 0 ft / 0 m 197 ft / 60 m APP CENTERLINE EDGE THRESHOLD
05R 148 ft / 45 m 11,674 ft / 3,558 m 48.33° / 43.39° ASPHALT 0 ft / 0 m 197 ft / 60 m APP CENTERLINE EDGE THRESHOLD ALSF-I TDZ
23L 148 ft / 45 m 11,674 ft / 3,558 m 228.35° / 223.41° ASPHALT 0 ft / 0 m 197 ft / 60 m APP CENTERLINE EDGE THRESHOLD SALS TDZ
23R 148 ft / 45 m 11,808 ft / 3,599 m 228.38° / 223.44° ASPHALT 0 ft / 0 m 197 ft / 60 m PREC-APP CENTERLINE EDGE THRESHOLD ALSF-II

Approach Navaids

Runway Type Ident Frequency Range Bearing (true/mag) Slope Elevation
23R GS IDA 109.90 MHz 10 nm / 19 km 228.74° / 223.80 ° 3.00° 2,033 ft / 620 m (AMSL)
23R LOC-ILS IDA 109.90 MHz 18 nm / 33 km 227.88° / 222.94 ° - 2,033 ft / 620 m (AMSL)
23R OM OM - - 228.37° / 223.43 ° - 2,020 ft / 616 m (AMSL)

Popular Alternatives